Weatherby, Missouri
Current Conditions -  °F | °C
As of 11:53 AM on Friday 28 Nov 2014 (Local Time) from KSTJ Reporting Station
Clear Clear  
Wind Chill: 50°   Ceiling: Unl
Heat Index: 50°   Visibility: 10mi
Dew Point: 30°   Wind: 14mph
Humidity: 46%   Direction: 200°SSW
Pressure: 29.87"   Gusts: NA
Location:  39.91°N, 94.24°W
Report Text: KSTJ 281753Z 20012KT 10SM CLR 10/M01 A2987 RMK AO2 SLP119 T01001011 10106 21022 58033
Loading
Personal Weather Stations






























Interactive Weather Map New forecast layout! Learn more

10-Day Weather Forecast

Advertisements
Track Severe Weather on mobile